Time;durP1;ratioP1;P1;durP2;ratioP2;P2;SDS_P1;SDS_P2;PMS_P1;PMS_P2;Temp;Humidity;BMP_temperature;BMP_pressure;BME280_temperature;BME280_humidity;BME280_pressure;Samples;Min_cycle;Max_cycle;Signal;HPM_P1;HPM_P2
2021/03/15 00:01:33;;;;;;;7.20;3.08;;;;;;;-139.48;100.00;61774.03;5015117;28;20052;-68
2021/03/15 00:04:17;;;;;;;5.43;2.70;;;;;;;-139.48;100.00;61774.03;5015612;28;20434;-67
2021/03/15 00:07:01;;;;;;;6.35;3.60;;;;;;;-139.48;100.00;61774.03;5017304;28;20048;-67
2021/03/15 00:09:45;;;;;;;6.18;3.28;;;;;;;-139.48;100.00;61774.03;5015769;28;20128;-68
2021/03/15 00:12:29;;;;;;;5.93;3.33;;;;;;;-139.48;100.00;61774.03;5000595;28;20125;-68
2021/03/15 00:15:15;;;;;;;6.28;3.03;;;;;;;-139.48;100.00;61774.03;5000804;28;20532;-68
2021/03/15 00:18:00;;;;;;;7.05;3.03;;;;;;;-139.48;100.00;61774.03;5015455;28;20056;-68
2021/03/15 00:20:45;;;;;;;4.40;3.25;;;;;;;-139.48;100.00;61774.03;5000694;28;20056;-67
2021/03/15 00:23:29;;;;;;;6.18;2.92;;;;;;;-139.48;100.00;61774.03;5000357;28;20557;-68
2021/03/15 00:26:13;;;;;;;7.05;3.17;;;;;;;-139.48;100.00;61774.03;5015354;28;20563;-68
2021/03/15 00:28:57;;;;;;;6.07;3.15;;;;;;;-139.48;100.00;61774.03;5015087;28;20048;-68
2021/03/15 00:31:41;;;;;;;6.05;3.30;;;;;;;-139.48;100.00;61774.03;5000532;28;20041;-68
2021/03/15 00:34:26;;;;;;;4.32;2.00;;;;;;;-139.48;100.00;61774.03;5000256;28;20049;-68
2021/03/15 00:37:10;;;;;;;9.23;3.22;;;;;;;-139.48;100.00;61774.03;5015153;28;20134;-68
2021/03/15 00:39:54;;;;;;;7.90;3.80;;;;;;;-139.48;100.00;61774.03;4986254;28;20053;-68
2021/03/15 00:42:43;;;;;;;10.68;4.03;;;;;;;-139.48;100.00;61774.03;5000356;28;20096;-68
2021/03/15 00:45:27;;;;;;;8.70;3.83;;;;;;;-139.48;100.00;61774.03;4999896;28;20080;-68
2021/03/15 00:48:11;;;;;;;8.10;3.55;;;;;;;-139.48;100.00;61774.03;4999967;28;20052;-68
2021/03/15 00:50:55;;;;;;;7.88;3.40;;;;;;;-139.48;100.00;61774.03;5015002;28;20127;-67
2021/03/15 00:53:39;;;;;;;15.88;5.03;;;;;;;-139.48;100.00;61774.03;5000008;28;20068;-68
2021/03/15 00:56:23;;;;;;;9.52;3.95;;;;;;;-139.48;100.00;61774.03;5014907;28;20100;-67
2021/03/15 00:59:07;;;;;;;8.75;3.75;;;;;;;-139.48;100.00;61774.03;4999563;28;20057;-68
2021/03/15 01:01:52;;;;;;;8.77;4.55;;;;;;;-139.48;100.00;61774.03;4999951;28;20112;-68
2021/03/15 01:04:36;;;;;;;10.70;3.95;;;;;;;-139.48;100.00;61774.03;5014725;28;20104;-67
2021/03/15 01:07:20;;;;;;;8.45;3.92;;;;;;;-139.48;100.00;61774.03;5014356;28;20053;-68
2021/03/15 01:10:10;;;;;;;9.75;3.80;;;;;;;-139.48;100.00;61774.03;4999782;28;20133;-68
2021/03/15 01:12:54;;;;;;;8.65;4.03;;;;;;;-139.48;100.00;61774.03;5013435;28;20045;-68
2021/03/15 01:15:40;;;;;;;8.25;3.63;;;;;;;-139.48;100.00;61774.03;4999452;28;20104;-68
2021/03/15 01:18:25;;;;;;;6.60;3.33;;;;;;;-139.48;100.00;61774.03;4999543;28;20100;-68
2021/03/15 01:21:14;;;;;;;10.63;3.97;;;;;;;-139.48;100.00;61774.03;5014339;28;20552;-68
2021/03/15 01:23:58;;;;;;;10.73;4.68;;;;;;;-139.48;100.00;61774.03;5014105;28;20052;-68
2021/03/15 01:26:43;;;;;;;9.65;3.85;;;;;;;-139.48;100.00;61774.03;4999555;28;20049;-68
2021/03/15 01:29:27;;;;;;;11.02;4.60;;;;;;;-139.48;100.00;61774.03;5013930;28;20048;-67
2021/03/15 01:32:11;;;;;;;11.32;4.15;;;;;;;-139.48;100.00;61774.03;5014251;28;20052;-67
2021/03/15 01:34:55;;;;;;;9.15;4.35;;;;;;;-139.48;100.00;61774.03;4999110;28;20120;-67
2021/03/15 01:37:39;;;;;;;7.55;3.40;;;;;;;-139.48;100.00;61774.03;4999207;28;20049;-67
2021/03/15 01:40:24;;;;;;;8.00;4.20;;;;;;;-139.48;100.00;61774.03;5013999;28;20068;-67
2021/03/15 01:43:08;;;;;;;7.10;4.28;;;;;;;-139.48;100.00;61774.03;4998933;28;20120;-68
2021/03/15 01:45:52;;;;;;;8.35;4.22;;;;;;;-139.48;100.00;61774.03;4998949;28;20501;-68
2021/03/15 01:48:37;;;;;;;9.25;3.92;;;;;;;-139.48;100.00;61774.03;4999089;28;20153;-68
2021/03/15 01:51:21;;;;;;;3.92;2.42;;;;;;;-139.48;100.00;61774.03;5013905;28;20048;-67
2021/03/15 01:54:05;;;;;;;7.30;3.60;;;;;;;-139.48;100.00;61774.03;5013859;28;20048;-68
2021/03/15 01:56:50;;;;;;;10.30;3.80;;;;;;;-139.48;100.00;61774.03;5013933;28;20048;-68
2021/03/15 01:59:34;;;;;;;11.98;3.75;;;;;;;-139.48;100.00;61774.03;5013710;28;20051;-68
2021/03/15 02:02:18;;;;;;;14.57;3.92;;;;;;;-139.48;100.00;61774.03;4998707;28;20104;-68
2021/03/15 02:05:04;;;;;;;7.28;3.80;;;;;;;-139.48;100.00;61774.03;4998883;28;20052;-68
2021/03/15 02:07:48;;;;;;;9.70;3.97;;;;;;;-139.48;100.00;61774.03;4998858;28;20052;-67
2021/03/15 02:10:34;;;;;;;11.40;4.30;;;;;;;-139.48;100.00;61774.03;5013531;28;20129;-68
2021/03/15 02:13:52;;;;;;;8.70;4.13;;;;;;;-139.48;100.00;61774.03;4998828;28;20084;-67
2021/03/15 02:17:15;;;;;;;8.75;4.00;;;;;;;-139.48;100.00;61774.03;4985010;28;20069;-68
2021/03/15 02:20:26;;;;;;;11.10;3.90;;;;;;;-139.48;100.00;61774.03;4963333;28;20536;-67
2021/03/15 02:23:18;;;;;;;10.27;4.65;;;;;;;-139.48;100.00;61774.03;5014083;28;20088;-68
2021/03/15 02:26:08;;;;;;;10.52;4.30;;;;;;;-139.48;100.00;61774.03;5002638;28;20521;-68
2021/03/15 02:29:01;;;;;;;9.18;3.22;;;;;;;-139.48;100.00;61774.03;5017368;28;20055;-67
2021/03/15 02:32:04;;;;;;;15.15;3.92;;;;;;;-139.48;100.00;61774.03;5017554;28;20045;-66
2021/03/15 02:35:03;;;;;;;11.00;4.75;;;;;;;-139.48;100.00;61774.03;5017548;28;20096;-68
2021/03/15 02:38:09;;;;;;;10.82;3.78;;;;;;;-139.48;100.00;61774.03;5017419;28;20041;-68
2021/03/15 02:40:56;;;;;;;11.60;3.53;;;;;;;-139.48;100.00;61774.03;5017076;28;20108;-68
2021/03/15 02:43:46;;;;;;;9.38;3.70;;;;;;;-139.48;100.00;61774.03;5002493;28;20048;-68
2021/03/15 02:46:31;;;;;;;8.18;3.70;;;;;;;-139.48;100.00;61774.03;5002176;28;20520;-68
2021/03/15 02:49:18;;;;;;;13.25;3.60;;;;;;;-139.48;100.00;61774.03;5002153;28;20119;-68
2021/03/15 02:52:03;;;;;;;11.15;3.88;;;;;;;-139.48;100.00;61774.03;5002140;28;20116;-68
2021/03/15 02:54:48;;;;;;;9.43;3.55;;;;;;;-139.48;100.00;61774.03;5002089;28;20080;-68
2021/03/15 02:57:34;;;;;;;11.95;3.92;;;;;;;-139.48;100.00;61774.03;5002160;28;20112;-68
2021/03/15 03:00:19;;;;;;;8.23;4.03;;;;;;;-139.48;100.00;61774.03;5017020;28;20449;-68
2021/03/15 03:03:03;;;;;;;11.02;3.70;;;;;;;-139.48;100.00;61774.03;5016709;28;20172;-68
2021/03/15 03:05:52;;;;;;;11.63;3.75;;;;;;;-139.48;100.00;61774.03;5001792;28;20108;-68
2021/03/15 03:08:37;;;;;;;13.63;5.47;;;;;;;-139.48;100.00;61774.03;5002091;28;20108;-68
2021/03/15 03:11:23;;;;;;;12.77;4.68;;;;;;;-139.48;100.00;61774.03;5001998;28;20041;-68
2021/03/15 03:14:09;;;;;;;8.90;3.88;;;;;;;-139.48;100.00;61774.03;5001672;28;20053;-68
2021/03/15 03:16:54;;;;;;;9.20;3.88;;;;;;;-139.48;100.00;61774.03;5016776;28;20137;-68
2021/03/15 03:19:40;;;;;;;8.48;4.40;;;;;;;-139.48;100.00;61774.03;5001698;28;20618;-67
2021/03/15 03:22:25;;;;;;;11.00;4.43;;;;;;;-139.48;100.00;61774.03;5016738;28;20180;-67
2021/03/15 03:25:11;;;;;;;12.35;3.95;;;;;;;-139.48;100.00;61774.03;5016609;28;20486;-68
2021/03/15 03:27:56;;;;;;;8.98;3.85;;;;;;;-139.48;100.00;61774.03;5001514;28;20080;-68
2021/03/15 03:30:40;;;;;;;6.13;2.95;;;;;;;-139.48;100.00;61774.03;5001574;28;20560;-68
2021/03/15 03:33:25;;;;;;;12.57;2.63;;;;;;;-139.48;100.00;61774.03;5001653;28;20133;-68
2021/03/15 03:36:09;;;;;;;10.45;3.63;;;;;;;-139.48;100.00;61774.03;5015250;28;20053;-68
2021/03/15 03:38:55;;;;;;;7.22;3.22;;;;;;;-139.48;100.00;61774.03;5001385;28;20093;-68
2021/03/15 03:41:39;;;;;;;6.88;3.30;;;;;;;-139.48;100.00;61774.03;5016003;28;20112;-68
2021/03/15 03:44:24;;;;;;;8.25;2.15;;;;;;;-139.48;100.00;61774.03;5001469;28;20057;-68
2021/03/15 03:47:08;;;;;;;8.32;4.10;;;;;;;-139.48;100.00;61774.03;5001370;28;20049;-68
2021/03/15 03:49:52;;;;;;;7.90;3.50;;;;;;;-139.48;100.00;61774.03;5015840;28;20044;-68
2021/03/15 03:52:37;;;;;;;8.65;3.22;;;;;;;-139.48;100.00;61774.03;5015833;28;20161;-68
2021/03/15 03:55:26;;;;;;;9.82;3.70;;;;;;;-139.48;100.00;61774.03;5001044;28;20141;-68
2021/03/15 03:58:13;;;;;;;7.80;3.30;;;;;;;-139.48;100.00;61774.03;5000724;28;20606;-68
2021/03/15 04:00:57;;;;;;;13.77;3.65;;;;;;;-139.48;100.00;61774.03;5000861;28;20105;-68
2021/03/15 04:03:48;;;;;;;13.85;3.80;;;;;;;-139.48;100.00;61774.03;5015628;28;20510;-67
2021/03/15 04:06:35;;;;;;;7.25;2.88;;;;;;;-139.48;100.00;61774.03;5001033;28;20407;-67
2021/03/15 04:09:30;;;;;;;9.23;2.83;;;;;;;-139.48;100.00;61774.03;5000767;28;20049;-68
2021/03/15 04:12:17;;;;;;;10.57;4.15;;;;;;;-139.48;100.00;61774.03;5000781;28;20100;-68
2021/03/15 04:15:02;;;;;;;7.28;3.17;;;;;;;-139.48;100.00;61774.03;5015433;28;20096;-68
2021/03/15 04:17:48;;;;;;;6.30;3.13;;;;;;;-139.48;100.00;61774.03;5000714;28;20044;-68
2021/03/15 04:20:36;;;;;;;7.82;4.35;;;;;;;-139.48;100.00;61774.03;5015495;28;20052;-68
2021/03/15 04:23:24;;;;;;;7.05;4.13;;;;;;;-139.48;100.00;61774.03;5015746;28;20172;-68
2021/03/15 04:26:09;;;;;;;7.57;4.13;;;;;;;-139.48;100.00;61774.03;5000923;28;20052;-68
2021/03/15 04:28:54;;;;;;;10.88;3.83;;;;;;;-139.48;100.00;61774.03;5015045;28;20048;-68
2021/03/15 04:31:38;;;;;;;9.50;5.00;;;;;;;-139.48;100.00;61774.03;4986438;28;20052;-68
2021/03/15 04:34:22;;;;;;;7.75;4.20;;;;;;;-139.48;100.00;61774.03;5015295;28;20502;-68
2021/03/15 04:37:07;;;;;;;11.77;4.60;;;;;;;-139.48;100.00;61774.03;5000252;28;20056;-67
2021/03/15 04:39:51;;;;;;;8.73;4.70;;;;;;;-139.48;100.00;61774.03;5000536;28;20049;-68
2021/03/15 04:42:35;;;;;;;6.43;3.38;;;;;;;-139.48;100.00;61774.03;4986573;28;20564;-67
2021/03/15 04:45:20;;;;;;;5.35;3.33;;;;;;;-139.48;100.00;61774.03;5014828;28;20095;-66
2021/03/15 04:48:04;;;;;;;13.70;4.70;;;;;;;-139.48;100.00;61774.03;5015031;28;20052;-67
2021/03/15 04:50:51;;;;;;;8.55;3.92;;;;;;;-139.48;100.00;61774.03;4999879;28;20100;-67
2021/03/15 04:53:37;;;;;;;15.07;5.43;;;;;;;-139.48;100.00;61774.03;5000072;28;20509;-66
2021/03/15 04:56:22;;;;;;;4.97;3.47;;;;;;;-139.48;100.00;61774.03;5000106;28;20514;-67
2021/03/15 04:59:08;;;;;;;11.80;5.68;;;;;;;-139.48;100.00;61774.03;4999505;28;20061;-68
2021/03/15 05:01:52;;;;;;;10.27;5.55;;;;;;;-139.48;100.00;61774.03;4999557;28;20085;-68
2021/03/15 05:04:37;;;;;;;17.92;7.47;;;;;;;-139.48;100.00;61774.03;5015067;28;20100;-67
2021/03/15 05:07:21;;;;;;;9.40;4.25;;;;;;;-139.48;100.00;61774.03;5014604;28;20090;-68
2021/03/15 05:10:07;;;;;;;13.32;6.50;;;;;;;-139.48;100.00;61774.03;5014587;28;20088;-66
2021/03/15 05:12:52;;;;;;;15.68;7.43;;;;;;;-139.48;100.00;61774.03;5014614;28;20053;-67
2021/03/15 05:15:37;;;;;;;14.93;7.82;;;;;;;-139.48;100.00;61774.03;4985956;28;20107;-68
2021/03/15 05:18:21;;;;;;;11.40;5.00;;;;;;;-139.48;100.00;61774.03;5014413;28;20052;-67
2021/03/15 05:21:07;;;;;;;15.10;6.07;;;;;;;-139.48;100.00;61774.03;5014402;28;20053;-68
2021/03/15 05:23:52;;;;;;;7.93;3.97;;;;;;;-139.48;100.00;61774.03;5014131;28;20088;-68
2021/03/15 05:26:38;;;;;;;8.68;4.65;;;;;;;-139.48;100.00;61774.03;4999260;28;20048;-68
2021/03/15 05:29:24;;;;;;;8.23;4.32;;;;;;;-139.48;100.00;61774.03;4999400;28;20569;-68
2021/03/15 05:32:09;;;;;;;10.32;5.05;;;;;;;-139.48;100.00;61774.03;4999171;28;20052;-68
2021/03/15 05:34:54;;;;;;;4.68;2.50;;;;;;;-139.48;100.00;61774.03;5014223;28;20509;-68
2021/03/15 05:37:38;;;;;;;8.98;3.85;;;;;;;-139.48;100.00;61774.03;5014064;28;20049;-68
2021/03/15 05:40:24;;;;;;;5.35;2.85;;;;;;;-139.48;100.00;61774.03;4999302;28;20092;-68
2021/03/15 05:43:28;;;;;;;6.50;3.15;;;;;;;-139.48;100.00;61774.03;4998956;28;20056;-68
2021/03/15 05:46:31;;;;;;;;;;;;;;;-139.48;100.00;61774.03;5014204;28;20053;-68
2021/03/15 05:49:27;;;;;;;5.18;1.73;;;;;;;-139.48;100.00;61774.03;5013697;28;19963;-67
2021/03/15 05:52:39;;;;;;;7.55;2.22;;;;;;;-139.48;100.00;61774.03;4999024;28;20080;-68
2021/03/15 05:55:34;;;;;;;9.55;2.38;;;;;;;-139.48;100.00;61774.03;5013611;28;20052;-68
2021/03/15 05:58:51;;;;;;;6.35;2.30;;;;;;;-139.48;100.00;61774.03;4998247;28;20048;-68
2021/03/15 06:01:35;;;;;;;9.18;3.17;;;;;;;-139.48;100.00;61774.03;4985149;28;20133;-68
2021/03/15 06:04:45;;;;;;;6.40;2.92;;;;;;;-139.48;100.00;61774.03;5013678;28;20048;-67
2021/03/15 06:07:32;;;;;;;3.97;1.92;;;;;;;-139.48;100.00;61774.03;4984870;28;20172;-68
2021/03/15 06:10:41;;;;;;;7.75;3.63;;;;;;;-139.48;100.00;61774.03;5050530;22;20140;-67
2021/03/15 06:13:27;;;;;;;7.10;3.80;;;;;;;-139.48;100.00;61774.03;5033429;28;20039;-67
2021/03/15 06:16:12;;;;;;;6.28;3.33;;;;;;;-139.48;100.00;61774.03;5018505;28;20051;-67
2021/03/15 06:18:58;;;;;;;6.32;3.58;;;;;;;-139.48;100.00;61774.03;5031966;28;20055;-67
2021/03/15 06:21:43;;;;;;;6.55;3.70;;;;;;;-139.48;100.00;61774.03;5018128;28;20183;-67
2021/03/15 06:24:27;;;;;;;7.55;4.30;;;;;;;-139.48;100.00;61774.03;5033471;28;20044;-67
2021/03/15 06:27:12;;;;;;;7.25;4.20;;;;;;;-139.48;100.00;61774.03;5032978;28;20052;-67
2021/03/15 06:29:56;;;;;;;6.82;3.20;;;;;;;-139.48;100.00;61774.03;5018017;28;20064;-67
2021/03/15 06:32:41;;;;;;;6.40;3.83;;;;;;;-139.48;100.00;61774.03;5018031;28;20553;-67
2021/03/15 06:35:33;;;;;;;4.97;2.78;;;;;;;-139.48;100.00;61774.03;5018188;28;20095;-66
2021/03/15 06:38:17;;;;;;;5.38;3.40;;;;;;;-139.48;100.00;61774.03;5018233;28;20485;-67
2021/03/15 06:41:05;;;;;;;5.88;3.30;;;;;;;-139.48;100.00;61774.03;5017913;28;20414;-66
2021/03/15 06:43:50;;;;;;;9.52;4.05;;;;;;;-139.48;100.00;61774.03;5018127;28;20179;-67
2021/03/15 06:46:34;;;;;;;7.90;3.35;;;;;;;-139.48;100.00;61774.03;5032803;28;20550;-67
2021/03/15 06:49:19;;;;;;;9.80;3.25;;;;;;;-139.48;100.00;61774.03;5033100;28;20048;-67
2021/03/15 06:52:04;;;;;;;6.10;3.20;;;;;;;-139.48;100.00;61774.03;5033181;28;20096;-67
2021/03/15 06:54:58;;;;;;;5.53;2.40;;;;;;;-139.48;100.00;61774.03;5033044;28;20473;-67
2021/03/15 06:57:42;;;;;;;;;;;;;;;-139.48;100.00;61774.03;5033045;28;20079;-67
2021/03/15 07:00:29;;;;;;;4.82;2.85;;;;;;;-139.48;100.00;61774.03;5032609;28;19967;-67
2021/03/15 07:03:22;;;;;;;2.92;2.20;;;;;;;-139.48;100.00;61774.03;5017753;28;20127;-66
2021/03/15 07:06:08;;;;;;;4.57;2.45;;;;;;;-139.48;100.00;61774.03;5032614;28;20099;-67
2021/03/15 07:09:08;;;;;;;2.92;2.08;;;;;;;-139.48;100.00;61774.03;5017574;28;20132;-67
2021/03/15 07:12:02;;;;;;;5.10;2.05;;;;;;;-139.48;100.00;61774.03;5021065;28;20549;-67
2021/03/15 07:14:47;;;;;;;1.98;1.58;;;;;;;-139.48;100.00;61774.03;5036319;28;20497;-67
2021/03/15 07:17:33;;;;;;;4.00;1.70;;;;;;;-139.48;100.00;61774.03;5021371;28;20417;-66
2021/03/15 07:20:17;;;;;;;2.45;1.17;;;;;;;-139.48;100.00;61774.03;5021161;28;20052;-66
2021/03/15 07:23:01;;;;;;;1.67;0.95;;;;;;;-139.48;100.00;61774.03;5021186;28;20521;-68
2021/03/15 07:25:46;;;;;;;2.67;1.60;;;;;;;-139.48;100.00;61774.03;5036396;28;20047;-68
2021/03/15 07:28:31;;;;;;;4.90;2.10;;;;;;;-139.48;100.00;61774.03;5036317;28;20051;-67
2021/03/15 07:31:17;;;;;;;4.30;2.13;;;;;;;-139.48;100.00;61774.03;5021271;28;20068;-68
2021/03/15 07:34:01;;;;;;;3.75;2.35;;;;;;;-139.48;100.00;61774.03;5036273;28;20053;-68
2021/03/15 07:36:51;;;;;;;3.60;2.10;;;;;;;-139.48;100.00;61774.03;5036365;28;20048;-67
2021/03/15 07:39:35;;;;;;;2.35;1.83;;;;;;;-139.48;100.00;61774.03;5022403;28;20533;-67
2021/03/15 07:42:19;;;;;;;4.13;1.60;;;;;;;-139.48;100.00;61774.03;5037520;28;20180;-66
2021/03/15 07:45:04;;;;;;;5.47;2.25;;;;;;;-139.48;100.00;61774.03;5036047;28;20148;-67
2021/03/15 07:47:49;;;;;;;1.75;1.13;;;;;;;-139.48;100.00;61774.03;5021009;28;20570;-67
2021/03/15 07:50:34;;;;;;;4.60;2.53;;;;;;;-139.48;100.00;61774.03;5020931;28;20453;-67
2021/03/15 07:53:33;;;;;;;3.10;2.13;;;;;;;-139.48;100.00;61774.03;5020858;28;20063;-67
2021/03/15 07:56:21;;;;;;;3.45;2.22;;;;;;;-139.48;100.00;61774.03;5020472;28;20052;-67
2021/03/15 07:59:05;;;;;;;4.10;1.55;;;;;;;-139.48;100.00;61774.03;5035713;28;20116;-65
2021/03/15 08:01:49;;;;;;;3.42;2.10;;;;;;;-139.48;100.00;61774.03;5020570;28;20083;-67
2021/03/15 08:04:33;;;;;;;5.20;2.67;;;;;;;-139.48;100.00;61774.03;5035667;28;20048;-67
2021/03/15 08:07:18;;;;;;;3.25;2.25;;;;;;;-139.48;100.00;61774.03;5035399;28;20052;-66
2021/03/15 08:10:02;;;;;;;2.75;1.63;;;;;;;-139.48;100.00;61774.03;5035127;28;20115;-67
2021/03/15 08:12:47;;;;;;;4.05;2.20;;;;;;;-139.48;100.00;61774.03;5020372;28;20244;-67
2021/03/15 08:15:32;;;;;;;4.22;2.50;;;;;;;-139.48;100.00;61774.03;5020819;28;20146;-67
2021/03/15 08:18:24;;;;;;;3.22;1.90;;;;;;;-139.48;100.00;61774.03;5020518;28;20103;-67
2021/03/15 08:21:21;;;;;;;2.83;1.73;;;;;;;-139.48;100.00;61774.03;5019892;28;20477;-67
2021/03/15 08:24:07;;;;;;;4.80;2.63;;;;;;;-139.48;100.00;61774.03;5020485;28;20127;-67
2021/03/15 08:26:52;;;;;;;2.33;1.50;;;;;;;-139.48;100.00;61774.03;5035538;28;20501;-67
2021/03/15 08:29:38;;;;;;;3.45;2.30;;;;;;;-139.48;100.00;61774.03;5019933;28;20052;-66
2021/03/15 08:32:23;;;;;;;2.88;2.00;;;;;;;-139.48;100.00;61774.03;5034874;28;20560;-67
2021/03/15 08:35:08;;;;;;;3.70;2.00;;;;;;;-139.48;100.00;61774.03;5034824;28;20072;-67
2021/03/15 08:37:57;;;;;;;2.00;1.30;;;;;;;-139.48;100.00;61774.03;5019824;28;20084;-67
2021/03/15 08:40:41;;;;;;;3.53;2.38;;;;;;;-139.48;100.00;61774.03;5019500;28;20574;-66
2021/03/15 08:43:29;;;;;;;2.92;2.00;;;;;;;-139.48;100.00;61774.03;5034721;28;20052;-66
2021/03/15 08:46:38;;;;;;;2.67;1.70;;;;;;;-139.48;100.00;61774.03;5034697;28;20044;-67
2021/03/15 08:49:30;;;;;;;2.90;1.50;;;;;;;-139.48;100.00;61774.03;5034533;28;20095;-67
2021/03/15 08:52:35;;;;;;;2.90;2.22;;;;;;;-139.48;100.00;61774.03;5034876;28;20106;-67
2021/03/15 08:55:41;;;;;;;3.58;2.28;;;;;;;-139.48;100.00;61774.03;5019931;28;20471;-67
2021/03/15 08:58:52;;;;;;;3.65;1.38;;;;;;;-139.48;100.00;61774.03;5034731;28;20079;-67
2021/03/15 09:01:47;;;;;;;5.82;2.38;;;;;;;-139.48;100.00;61774.03;5019596;28;20052;-67
2021/03/15 09:04:42;;;;;;;;;;;;;;;-139.48;100.00;61774.03;5006062;28;20090;-65
2021/03/15 09:07:30;;;;;;;4.05;1.92;;;;;;;-139.48;100.00;61774.03;5034187;28;19994;-65
2021/03/15 09:10:23;;;;;;;3.28;1.77;;;;;;;-139.48;100.00;61774.03;5019071;28;20083;-67
2021/03/15 09:13:10;;;;;;;1.95;1.70;;;;;;;-139.48;100.00;61774.03;5034128;28;20462;-65
2021/03/15 09:15:59;;;;;;;2.45;1.70;;;;;;;-139.48;100.00;61774.03;5034132;28;20043;-65
2021/03/15 09:18:50;;;;;;;3.78;2.70;;;;;;;-139.48;100.00;61774.03;5019383;28;20044;-65
2021/03/15 09:21:34;;;;;;;2.88;1.77;;;;;;;-139.48;100.00;61774.03;5019498;28;20098;-65
2021/03/15 09:24:42;;;;;;;3.58;2.00;;;;;;;-139.48;100.00;61774.03;5019530;28;20072;-65
2021/03/15 09:27:32;;;;;;;3.38;2.33;;;;;;;-139.48;100.00;61774.03;5034337;28;20064;-65
2021/03/15 09:30:25;;;;;;;2.10;1.80;;;;;;;-139.48;100.00;61774.03;5033794;28;20103;-65
2021/03/15 09:33:09;;;;;;;3.47;2.30;;;;;;;-139.48;100.00;61774.03;5018487;28;20043;-65
2021/03/15 09:35:53;;;;;;;4.50;2.30;;;;;;;-139.48;100.00;61774.03;5034070;28;20136;-65
2021/03/15 09:38:38;;;;;;;2.97;2.67;;;;;;;-139.48;100.00;61774.03;5018660;28;20110;-65
2021/03/15 09:41:26;;;;;;;4.03;2.42;;;;;;;-139.48;100.00;61774.03;5018893;28;20129;-65
2021/03/15 09:44:21;;;;;;;2.30;1.73;;;;;;;-139.48;100.00;61774.03;5033593;28;20474;-65
2021/03/15 09:47:05;;;;;;;4.03;2.38;;;;;;;-139.48;100.00;61774.03;5018892;28;20124;-65
2021/03/15 09:49:50;;;;;;;2.70;2.10;;;;;;;-139.48;100.00;61774.03;5033717;28;20460;-65
2021/03/15 09:52:34;;;;;;;2.65;2.00;;;;;;;-139.48;100.00;61774.03;5018670;28;20049;-66
2021/03/15 09:55:19;;;;;;;3.70;2.28;;;;;;;-139.48;100.00;61774.03;5033453;28;20541;-65
2021/03/15 09:58:05;;;;;;;1.90;1.58;;;;;;;-139.48;100.00;61774.03;5018812;28;20411;-66
2021/03/15 10:00:54;;;;;;;2.97;2.10;;;;;;;-139.48;100.00;61774.03;5033246;28;20100;-66
2021/03/15 10:03:38;;;;;;;2.22;1.98;;;;;;;-139.48;100.00;61774.03;5018523;28;20068;-66
2021/03/15 10:06:23;;;;;;;2.72;2.03;;;;;;;-139.48;100.00;61774.03;5004678;28;20047;-66
2021/03/15 10:09:07;;;;;;;2.45;2.13;;;;;;;-139.48;100.00;61774.03;5018230;28;20072;-66
2021/03/15 10:11:51;;;;;;;2.65;2.13;;;;;;;-139.48;100.00;61774.03;5018377;28;20044;-66
2021/03/15 10:14:35;;;;;;;3.38;2.20;;;;;;;-139.48;100.00;61774.03;5033448;28;20056;-67
2021/03/15 10:17:20;;;;;;;4.63;2.38;;;;;;;-139.48;100.00;61774.03;5018631;28;20052;-66
2021/03/15 10:20:07;;;;;;;2.75;2.30;;;;;;;-139.48;100.00;61774.03;5033120;28;20088;-66
2021/03/15 10:22:52;;;;;;;3.30;1.67;;;;;;;-139.48;100.00;61774.03;5018613;28;20099;-66
2021/03/15 10:25:37;;;;;;;2.22;1.90;;;;;;;-139.48;100.00;61774.03;5018449;28;20048;-66
2021/03/15 10:28:21;;;;;;;2.30;1.95;;;;;;;-139.48;100.00;61774.03;5033712;28;20056;-66
2021/03/15 10:31:08;;;;;;;2.95;2.40;;;;;;;-139.48;100.00;61774.03;5018150;28;20051;-67
2021/03/15 10:33:52;;;;;;;3.58;1.60;;;;;;;-139.48;100.00;61774.03;5032999;28;20422;-66
2021/03/15 10:36:36;;;;;;;4.38;2.00;;;;;;;-139.48;100.00;61774.03;5018600;28;20525;-68
2021/03/15 10:39:22;;;;;;;2.80;1.67;;;;;;;-139.48;100.00;61774.03;5018120;28;20049;-67
2021/03/15 10:42:06;;;;;;;1.63;1.30;;;;;;;-139.48;100.00;61774.03;5032885;28;20052;-68
2021/03/15 10:44:51;;;;;;;1.63;1.10;;;;;;;-139.48;100.00;61774.03;5019751;28;20051;-68
2021/03/15 10:47:37;;;;;;;1.25;0.90;;;;;;;-139.48;100.00;61774.03;5022203;28;20099;-68
2021/03/15 10:50:30;;;;;;;1.23;1.00;;;;;;;-139.48;100.00;61774.03;5037371;28;20124;-67
2021/03/15 10:53:15;;;;;;;2.38;0.82;;;;;;;-139.48;100.00;61774.03;5022092;28;20147;-68
2021/03/15 10:55:59;;;;;;;3.33;1.10;;;;;;;-139.48;100.00;61774.03;5021951;28;20075;-68
2021/03/15 10:58:43;;;;;;;2.17;1.20;;;;;;;-139.48;100.00;61774.03;5036641;28;20099;-68
2021/03/15 11:01:27;;;;;;;1.30;0.60;;;;;;;-139.48;100.00;61774.03;5021814;28;20056;-68
2021/03/15 11:04:11;;;;;;;0.77;0.65;;;;;;;-139.48;100.00;61774.03;5021540;28;20056;-68
2021/03/15 11:06:56;;;;;;;1.75;0.60;;;;;;;-139.48;100.00;61774.03;5036579;28;20160;-67
2021/03/15 11:09:40;;;;;;;1.77;0.80;;;;;;;-139.48;100.00;61774.03;5036694;28;20076;-68
2021/03/15 11:12:57;;;;;;;1.45;1.02;;;;;;;-139.48;100.00;61774.03;5036500;28;20047;-68
2021/03/15 11:15:41;;;;;;;0.88;0.70;;;;;;;-139.48;100.00;61774.03;4988972;28;20052;-67
2021/03/15 11:18:25;;;;;;;0.60;0.60;;;;;;;-139.48;100.00;61774.03;5036615;28;20525;-68
2021/03/15 11:21:10;;;;;;;1.20;0.80;;;;;;;-139.48;100.00;61774.03;5036556;28;20051;-68
2021/03/15 11:23:54;;;;;;;0.60;0.60;;;;;;;-139.48;100.00;61774.03;5021501;28;20044;-69
2021/03/15 11:26:50;;;;;;;0.80;0.80;;;;;;;-139.48;100.00;61774.03;5021528;28;20107;-68
2021/03/15 11:29:39;;;;;;;0.80;0.70;;;;;;;-139.48;100.00;61774.03;5021352;28;20064;-68
2021/03/15 11:32:23;;;;;;;1.25;0.73;;;;;;;-139.48;100.00;61774.03;5021311;28;20169;-67
2021/03/15 11:35:07;;;;;;;2.72;1.00;;;;;;;-139.48;100.00;61774.03;5007672;28;20553;-68
2021/03/15 11:37:51;;;;;;;1.20;1.00;;;;;;;-139.48;100.00;61774.03;5021235;28;20133;-67
2021/03/15 11:40:43;;;;;;;1.02;0.80;;;;;;;-139.48;100.00;61774.03;5020862;28;20492;-66
2021/03/15 11:43:27;;;;;;;0.82;0.77;;;;;;;-139.48;100.00;61774.03;5035824;28;20126;-67
2021/03/15 11:46:12;;;;;;;1.58;1.00;;;;;;;-139.48;100.00;61774.03;5020946;28;20089;-67
2021/03/15 11:48:57;;;;;;;0.85;0.65;;;;;;;-139.48;100.00;61774.03;5035671;28;20052;-67
2021/03/15 11:51:40;;;;;;;1.08;0.98;;;;;;;-139.48;100.00;61774.03;5035973;28;20063;-67
2021/03/15 11:54:24;;;;;;;1.13;0.77;;;;;;;-139.48;100.00;61774.03;5020836;28;20056;-68
2021/03/15 11:57:09;;;;;;;1.20;0.90;;;;;;;-139.48;100.00;61774.03;5020379;28;20091;-67
2021/03/15 11:59:53;;;;;;;1.38;1.05;;;;;;;-139.48;100.00;61774.03;5020409;28;20096;-68
2021/03/15 12:02:37;;;;;;;1.20;1.10;;;;;;;-139.48;100.00;61774.03;5035465;28;20061;-68
2021/03/15 12:05:22;;;;;;;2.55;0.93;;;;;;;-139.48;100.00;61774.03;5020729;28;20095;-68
2021/03/15 12:08:06;;;;;;;6.95;4.50;;;;;;;-139.48;100.00;61774.03;5020365;28;20057;-67
2021/03/15 12:10:51;;;;;;;1.33;1.23;;;;;;;-139.48;100.00;61774.03;5035120;28;20052;-67
2021/03/15 12:13:35;;;;;;;4.43;3.40;;;;;;;-139.48;100.00;61774.03;5035477;28;20044;-68
2021/03/15 12:16:19;;;;;;;1.20;1.00;;;;;;;-139.48;100.00;61774.03;5035462;28;20053;-67
2021/03/15 12:19:03;;;;;;;1.50;1.17;;;;;;;-139.48;100.00;61774.03;5035139;28;20048;-67
2021/03/15 12:21:48;;;;;;;1.20;1.10;;;;;;;-139.48;100.00;61774.03;5035362;28;20409;-67
2021/03/15 12:24:32;;;;;;;1.77;1.15;;;;;;;-139.48;100.00;61774.03;5035097;28;20095;-67
2021/03/15 12:27:16;;;;;;;;;;;;;;;-139.48;100.00;61774.03;5020729;28;20140;-67
2021/03/15 12:30:00;;;;;;;1.20;1.10;;;;;;;-139.48;100.00;61774.03;5035379;28;19919;-67
2021/03/15 12:32:44;;;;;;;1.50;1.13;;;;;;;-139.48;100.00;61774.03;5020232;28;20410;-67
2021/03/15 12:35:28;;;;;;;;;;;;;;;-139.48;100.00;61774.03;5035351;28;20417;-67
2021/03/15 12:38:13;;;;;;;1.15;1.05;;;;;;;-139.48;100.00;61774.03;5035183;28;19938;-67
2021/03/15 12:40:57;;;;;;;2.97;1.33;;;;;;;-139.48;100.00;61774.03;5034933;28;20056;-67